createdAt,value
2023-01-30T00:02:54.337Z,77.96
2023-01-30T00:05:57.398Z,77.96
2023-01-30T00:09:00.335Z,78.14
2023-01-30T00:12:03.529Z,78.08
2023-01-30T00:15:08.817Z,78.33
2023-01-30T00:18:11.543Z,78.15
2023-01-30T00:21:16.056Z,78.22
2023-01-30T00:24:18.815Z,78.30
2023-01-30T00:27:21.524Z,78.40
2023-01-30T00:30:25.841Z,78.44
2023-01-30T00:33:29.183Z,78.38
2023-01-30T00:36:31.887Z,78.50
2023-01-30T00:39:34.546Z,78.82
2023-01-30T00:42:54.819Z,79.11
2023-01-30T00:46:16.904Z,79.32
2023-01-30T00:49:19.994Z,79.34
2023-01-30T00:52:22.726Z,79.77
2023-01-30T00:55:25.364Z,79.92
2023-01-30T00:58:28.274Z,80.60
2023-01-30T01:01:32.329Z,80.70
2023-01-30T01:04:43.240Z,80.89
2023-01-30T01:07:45.972Z,81.06
2023-01-30T01:10:48.888Z,81.19
2023-01-30T01:13:53.380Z,81.23
2023-01-30T01:16:57.430Z,81.65
2023-01-30T01:20:00.145Z,82.01
2023-01-30T01:23:03.619Z,81.95
2023-01-30T01:26:06.703Z,82.25
2023-01-30T01:29:13.179Z,82.57
2023-01-30T01:32:17.360Z,82.51
2023-01-30T01:35:20.588Z,82.39
2023-01-30T01:38:24.424Z,82.37
2023-01-30T01:41:26.302Z,82.64
2023-01-30T01:44:29.055Z,83.07
2023-01-30T01:47:35.814Z,82.96
2023-01-30T01:50:45.303Z,82.93
2023-01-30T01:53:59.865Z,82.47
2023-01-30T01:57:06.502Z,82.47
2023-01-30T02:00:13.865Z,82.32
2023-01-30T02:03:23.269Z,82.16
2023-01-30T02:06:26.410Z,82.02
2023-01-30T02:09:29.223Z,82.50
2023-01-30T02:12:32.385Z,82.85
2023-01-30T02:15:35.298Z,83.17
2023-01-30T02:18:42.500Z,83.09
2023-01-30T02:22:13.077Z,83.49
2023-01-30T02:25:33.001Z,83.20
2023-01-30T02:29:16.404Z,83.31
2023-01-30T02:32:29.409Z,83.41
2023-01-30T02:35:37.815Z,83.30
2023-01-30T02:38:48.387Z,83.22
2023-01-30T02:42:02.605Z,83.08
2023-01-30T02:45:11.328Z,82.91
2023-01-30T02:48:21.528Z,83.09
2023-01-30T02:51:28.967Z,82.85
2023-01-30T02:54:31.667Z,82.68
2023-01-30T02:57:34.446Z,82.58
2023-01-30T03:01:04.450Z,82.65
2023-01-30T03:04:26.452Z,82.21
2023-01-30T03:07:42.437Z,82.23
2023-01-30T03:10:53.307Z,82.16
2023-01-30T03:14:00.029Z,82.17
2023-01-30T03:17:06.525Z,82.01
2023-01-30T03:20:12.747Z,81.77
2023-01-30T03:23:15.450Z,81.86
2023-01-30T03:26:21.291Z,81.80
2023-01-30T03:29:24.803Z,81.58
2023-01-30T03:32:27.557Z,81.53
2023-01-30T03:35:31.761Z,81.37
2023-01-30T03:38:35.505Z,81.59
2023-01-30T03:41:38.269Z,81.04
2023-01-30T03:44:40.951Z,81.30
2023-01-30T03:47:43.670Z,81.11
2023-01-30T03:50:47.692Z,81.18
2023-01-30T03:53:50.476Z,81.19
2023-01-30T03:56:53.140Z,80.92
2023-01-30T03:59:55.848Z,81.08
2023-01-30T04:02:59.348Z,81.31
2023-01-30T04:06:03.420Z,81.26
2023-01-30T04:09:06.180Z,81.14
2023-01-30T04:12:09.032Z,80.80
2023-01-30T04:15:12.656Z,80.79
2023-01-30T04:18:15.377Z,80.96
2023-01-30T04:21:19.685Z,80.95
2023-01-30T04:24:22.374Z,80.91
2023-01-30T04:27:25.214Z,80.64
2023-01-30T04:30:27.983Z,81.01
2023-01-30T04:33:30.825Z,80.87
2023-01-30T04:36:34.954Z,80.60
2023-01-30T04:39:37.663Z,80.68
2023-01-30T04:42:40.628Z,80.80
2023-01-30T04:45:44.245Z,80.82
2023-01-30T04:48:46.928Z,80.78
2023-01-30T04:51:50.984Z,81.03
2023-01-30T04:54:53.664Z,81.00
2023-01-30T04:57:56.620Z,80.84
2023-01-30T05:01:14.478Z,81.05
2023-01-30T05:04:17.262Z,80.85
2023-01-30T05:07:21.318Z,80.79
2023-01-30T05:10:24.148Z,81.04
2023-01-30T05:13:26.877Z,81.10
2023-01-30T05:16:30.000Z,81.24
2023-01-30T05:19:32.702Z,81.00
2023-01-30T05:22:36.678Z,80.76
2023-01-30T05:25:39.385Z,80.96
2023-01-30T05:28:42.555Z,80.81
2023-01-30T05:31:45.232Z,81.15
2023-01-30T05:34:49.513Z,80.94
2023-01-30T05:37:53.585Z,81.22
2023-01-30T05:41:00.685Z,81.06
2023-01-30T05:44:03.829Z,80.92
2023-01-30T05:47:06.523Z,81.01
2023-01-30T05:50:10.745Z,81.30
2023-01-30T05:53:15.019Z,81.10
2023-01-30T05:56:18.449Z,81.35
2023-01-30T05:59:21.401Z,81.42
2023-01-30T06:02:24.277Z,81.72
2023-01-30T06:05:27.342Z,81.38
2023-01-30T06:08:32.002Z,81.56
2023-01-30T06:11:34.760Z,81.39
2023-01-30T06:14:37.445Z,81.26
2023-01-30T06:17:43.670Z,81.06
2023-01-30T06:20:48.959Z,80.39
2023-01-30T06:23:53.476Z,80.79
2023-01-30T06:26:56.220Z,80.78
2023-01-30T06:29:58.920Z,80.84
2023-01-30T06:33:02.225Z,81.16
2023-01-30T06:36:05.388Z,80.94
2023-01-30T06:39:09.447Z,80.92
2023-01-30T06:42:12.529Z,81.14
2023-01-30T06:45:17.078Z,80.97
2023-01-30T06:48:20.944Z,80.64
2023-01-30T06:51:24.186Z,81.29
2023-01-30T06:54:28.234Z,81.65
2023-01-30T06:57:30.909Z,81.11
2023-01-30T07:00:34.785Z,81.47
2023-01-30T07:03:37.589Z,81.14
2023-01-30T07:06:40.493Z,81.31
2023-01-30T07:09:44.598Z,81.25
2023-01-30T07:12:48.628Z,80.59
2023-01-30T07:15:51.550Z,80.70
2023-01-30T07:18:54.258Z,80.87
2023-01-30T07:21:56.925Z,80.78
2023-01-30T07:25:01.002Z,80.96
2023-01-30T07:28:04.335Z,80.80
2023-01-30T07:31:07.040Z,81.06
2023-01-30T07:34:09.781Z,81.24
2023-01-30T07:37:12.630Z,83.07
2023-01-30T07:40:17.642Z,82.20
2023-01-30T07:43:20.315Z,80.71
2023-01-30T07:46:23.069Z,80.24
2023-01-30T07:49:25.872Z,79.71
2023-01-30T07:52:28.577Z,78.32
2023-01-30T07:55:32.928Z,78.31
2023-01-30T07:58:35.684Z,78.73
2023-01-30T08:01:39.063Z,79.28
2023-01-30T08:04:42.166Z,79.52
2023-01-30T08:07:44.928Z,79.97
2023-01-30T08:10:50.911Z,80.48
2023-01-30T08:13:53.620Z,80.71
2023-01-30T08:16:57.641Z,81.17
2023-01-30T08:20:00.288Z,81.53
2023-01-30T08:23:03.942Z,81.54
2023-01-30T08:26:08.100Z,81.95
2023-01-30T08:29:11.045Z,81.95
2023-01-30T08:32:14.885Z,81.57
2023-01-30T08:35:19.071Z,81.47
2023-01-30T08:38:21.759Z,81.51
2023-01-30T08:41:27.601Z,81.09
2023-01-30T08:44:30.657Z,81.53
2023-01-30T08:47:35.471Z,81.33
2023-01-30T08:50:38.184Z,81.36
2023-01-30T08:53:40.918Z,81.09
2023-01-30T08:56:44.994Z,81.28
2023-01-30T08:59:47.703Z,81.05
2023-01-30T09:02:54.605Z,81.38
2023-01-30T09:05:57.536Z,81.18
2023-01-30T09:09:00.670Z,81.39
2023-01-30T09:12:05.990Z,81.34
2023-01-30T09:15:10.199Z,80.92
2023-01-30T09:18:12.886Z,81.65
2023-01-30T09:21:15.707Z,81.75
2023-01-30T09:24:18.470Z,81.54
2023-01-30T09:27:22.469Z,81.37
2023-01-30T09:30:25.679Z,81.49
2023-01-30T09:33:28.942Z,81.20
2023-01-30T09:36:32.370Z,81.68
2023-01-30T09:39:35.133Z,81.37
2023-01-30T09:43:12.349Z,81.29
2023-01-30T09:46:22.797Z,81.17
2023-01-30T09:49:38.525Z,80.90
2023-01-30T09:52:54.485Z,81.22
2023-01-30T09:56:00.278Z,81.27
2023-01-30T09:59:06.808Z,81.67
2023-01-30T10:02:30.085Z,81.74
2023-01-30T10:05:42.641Z,82.26
2023-01-30T10:08:53.619Z,82.44
2023-01-30T10:12:14.918Z,82.73
2023-01-30T10:15:30.743Z,83.24
2023-01-30T10:18:56.953Z,83.23
2023-01-30T10:22:03.562Z,82.97
2023-01-30T10:25:21.603Z,82.75
2023-01-30T10:28:29.237Z,82.57
2023-01-30T10:31:38.411Z,82.25
2023-01-30T10:34:44.915Z,81.98
2023-01-30T10:37:54.369Z,81.85
2023-01-30T10:41:03.713Z,81.78
2023-01-30T10:44:10.125Z,81.82
2023-01-30T10:47:41.747Z,81.27
2023-01-30T10:50:55.203Z,80.82
2023-01-30T10:54:03.732Z,81.04
2023-01-30T10:57:19.125Z,80.95
2023-01-30T11:00:29.657Z,80.48
2023-01-30T11:03:39.666Z,80.59
2023-01-30T11:06:43.248Z,80.91
2023-01-30T11:09:48.396Z,80.59
2023-01-30T11:12:55.053Z,81.10
2023-01-30T11:16:00.649Z,80.92
2023-01-30T11:19:23.463Z,80.64
2023-01-30T11:22:27.395Z,79.94
2023-01-30T11:25:30.692Z,79.16
2023-01-30T11:28:41.613Z,78.91
2023-01-30T11:31:51.028Z,78.63
2023-01-30T11:35:19.205Z,78.33
2023-01-30T11:38:24.837Z,78.66
2023-01-30T11:41:28.578Z,78.52
2023-01-30T11:44:34.318Z,78.33
2023-01-30T11:47:37.039Z,78.47
2023-01-30T11:50:49.124Z,78.63
2023-01-30T11:54:00.873Z,79.00
2023-01-30T11:57:05.970Z,78.49
2023-01-30T12:00:18.764Z,78.51
2023-01-30T12:03:25.648Z,78.26
2023-01-30T12:06:33.130Z,78.30
2023-01-30T12:09:40.088Z,78.37
2023-01-30T12:12:50.165Z,78.25
2023-01-30T12:16:03.234Z,77.83
2023-01-30T12:19:16.769Z,77.68
2023-01-30T12:22:34.107Z,78.02
2023-01-30T12:25:42.627Z,77.92
2023-01-30T12:28:53.164Z,77.76
2023-01-30T12:32:05.900Z,77.92
2023-01-30T12:35:17.073Z,77.78
2023-01-30T12:38:35.090Z,77.32
2023-01-30T12:42:05.662Z,77.75
2023-01-30T12:45:21.239Z,77.83
2023-01-30T12:48:48.793Z,78.00
2023-01-30T12:52:15.801Z,77.65
2023-01-30T12:55:34.624Z,76.62
2023-01-30T12:58:45.674Z,76.03
2023-01-30T13:01:58.125Z,75.75
2023-01-30T13:05:21.214Z,75.42
2023-01-30T13:08:35.926Z,75.49
2023-01-30T13:11:49.012Z,75.72
2023-01-30T13:14:56.808Z,75.35
2023-01-30T13:18:14.720Z,75.45
2023-01-30T13:21:24.554Z,75.44
2023-01-30T13:24:40.829Z,75.11
2023-01-30T13:27:50.796Z,74.62
2023-01-30T13:30:56.132Z,73.76
2023-01-30T13:34:06.902Z,74.16
2023-01-30T13:37:12.948Z,73.93
2023-01-30T13:40:20.358Z,73.61
2023-01-30T13:43:30.321Z,73.55
2023-01-30T13:46:36.262Z,73.84
2023-01-30T13:49:43.775Z,73.54
2023-01-30T13:52:53.667Z,73.30
2023-01-30T13:55:59.042Z,73.68
2023-01-30T13:59:12.249Z,73.97
2023-01-30T14:02:21.824Z,74.10
2023-01-30T14:05:59.171Z,74.19
2023-01-30T14:09:06.818Z,74.01
2023-01-30T14:12:20.088Z,74.46
2023-01-30T14:15:28.972Z,75.01
2023-01-30T14:18:33.991Z,76.04
2023-01-30T14:21:38.493Z,76.28
2023-01-30T14:24:42.642Z,76.00
2023-01-30T14:27:45.405Z,76.49
2023-01-30T14:30:52.081Z,76.56
2023-01-30T14:33:54.815Z,76.66
2023-01-30T14:36:57.573Z,76.70
2023-01-30T14:40:00.782Z,76.71
2023-01-30T14:43:48.841Z,76.66
2023-01-30T14:46:58.523Z,77.17
2023-01-30T14:50:02.257Z,77.07
2023-01-30T14:53:05.545Z,76.96
2023-01-30T14:56:08.367Z,76.96
2023-01-30T14:59:21.931Z,77.33
2023-01-30T15:02:28.292Z,77.24
2023-01-30T15:05:39.034Z,77.65
2023-01-30T15:08:44.163Z,77.40
2023-01-30T15:11:54.810Z,77.63
2023-01-30T15:15:07.810Z,77.90
2023-01-30T15:18:36.400Z,77.98
2023-01-30T15:21:56.429Z,78.39
2023-01-30T15:25:25.657Z,78.43
2023-01-30T15:28:40.137Z,78.86
2023-01-30T15:31:54.658Z,79.00
2023-01-30T15:35:01.035Z,79.22
2023-01-30T15:38:03.805Z,79.50
2023-01-30T15:41:07.592Z,80.07
2023-01-30T15:44:51.908Z,80.06
2023-01-30T15:48:15.202Z,80.53
2023-01-30T15:51:27.141Z,80.34
2023-01-30T15:54:29.835Z,80.53
2023-01-30T15:57:36.807Z,80.79
2023-01-30T16:00:45.921Z,81.05
2023-01-30T16:03:51.022Z,81.35
2023-01-30T16:06:55.069Z,81.64
2023-01-30T16:10:07.337Z,81.57
2023-01-30T16:13:10.663Z,81.85
2023-01-30T16:16:18.356Z,80.99
2023-01-30T16:19:26.520Z,80.90
2023-01-30T16:22:35.708Z,81.75
2023-01-30T16:25:38.552Z,81.70
2023-01-30T16:28:41.908Z,82.10
2023-01-30T16:31:47.016Z,82.07
2023-01-30T16:34:49.838Z,82.21
2023-01-30T16:37:55.794Z,82.27
2023-01-30T16:40:59.422Z,82.45
2023-01-30T16:44:21.214Z,82.02
2023-01-30T16:47:26.206Z,82.05
2023-01-30T16:50:28.957Z,81.87
2023-01-30T16:53:34.320Z,81.85
2023-01-30T16:56:37.113Z,82.31
2023-01-30T16:59:40.493Z,81.95
2023-01-30T17:02:50.988Z,82.25
2023-01-30T17:05:53.889Z,82.06
2023-01-30T17:08:58.988Z,82.24
2023-01-30T17:12:01.756Z,81.88
2023-01-30T17:15:32.863Z,82.09
2023-01-30T17:18:35.750Z,82.16
2023-01-30T17:21:45.247Z,81.93
2023-01-30T17:24:49.381Z,81.86
2023-01-30T17:27:52.180Z,81.89
2023-01-30T17:30:55.093Z,82.09
2023-01-30T17:33:57.916Z,81.76
2023-01-30T17:37:00.609Z,81.99
2023-01-30T17:40:12.026Z,82.38
2023-01-30T17:43:15.755Z,82.15
2023-01-30T17:46:18.838Z,81.96
2023-01-30T17:49:23.509Z,82.06
2023-01-30T17:52:26.222Z,81.97
2023-01-30T17:55:30.457Z,82.10
2023-01-30T17:58:33.162Z,82.06
2023-01-30T18:01:35.902Z,81.83
2023-01-30T18:04:40.023Z,81.85
2023-01-30T18:07:43.866Z,81.92
2023-01-30T18:10:47.972Z,81.91
2023-01-30T18:13:50.754Z,81.93
2023-01-30T18:16:53.782Z,81.75
2023-01-30T18:19:56.679Z,81.66
2023-01-30T18:22:59.458Z,81.96
2023-01-30T18:26:03.499Z,81.74
2023-01-30T18:29:06.246Z,81.82
2023-01-30T18:32:08.985Z,81.64
2023-01-30T18:35:11.901Z,81.57
2023-01-30T18:38:14.705Z,81.63
2023-01-30T18:41:20.691Z,81.27
2023-01-30T18:44:23.377Z,81.39
2023-01-30T18:47:28.164Z,81.29
2023-01-30T18:50:30.931Z,81.38
2023-01-30T18:53:33.669Z,81.38
2023-01-30T18:56:39.007Z,81.08
2023-01-30T18:59:41.665Z,80.95
2023-01-30T19:02:44.481Z,81.42
2023-01-30T19:05:47.341Z,81.24
2023-01-30T19:08:50.300Z,81.11
2023-01-30T19:12:11.764Z,81.01
2023-01-30T19:15:14.646Z,81.08
2023-01-30T19:18:17.574Z,81.07
2023-01-30T19:21:20.585Z,81.04
2023-01-30T19:24:24.019Z,80.69
2023-01-30T19:27:28.182Z,80.68
2023-01-30T19:30:31.746Z,80.33
2023-01-30T19:33:34.735Z,80.51
2023-01-30T19:36:37.732Z,80.20
2023-01-30T19:39:40.617Z,80.51
2023-01-30T19:42:44.809Z,80.11
2023-01-30T19:45:58.883Z,80.35
2023-01-30T19:49:03.381Z,80.15
2023-01-30T19:52:06.488Z,80.01
2023-01-30T19:55:09.817Z,80.22
2023-01-30T19:58:13.843Z,80.02
2023-01-30T20:01:16.576Z,80.16
2023-01-30T20:04:19.314Z,80.63
2023-01-30T20:07:23.795Z,80.00
2023-01-30T20:10:26.522Z,78.70
2023-01-30T20:13:30.617Z,78.79
2023-01-30T20:16:34.777Z,79.54
2023-01-30T20:19:37.743Z,79.65
2023-01-30T20:22:40.737Z,79.82
2023-01-30T20:25:43.558Z,79.84
2023-01-30T20:28:47.693Z,79.75
2023-01-30T20:31:53.804Z,80.17
2023-01-30T20:34:56.560Z,80.14
2023-01-30T20:37:59.262Z,80.70
2023-01-30T20:41:03.843Z,80.80
2023-01-30T20:44:09.596Z,80.78
2023-01-30T20:47:12.292Z,81.01
2023-01-30T20:50:15.229Z,80.29
2023-01-30T20:53:18.109Z,80.69
2023-01-30T20:56:22.494Z,80.70
2023-01-30T20:59:27.332Z,80.86
2023-01-30T21:02:30.110Z,81.26
2023-01-30T21:05:32.839Z,81.07
2023-01-30T21:08:35.780Z,81.12
2023-01-30T21:11:39.670Z,80.96
2023-01-30T21:14:44.076Z,81.24
2023-01-30T21:17:47.463Z,81.25
2023-01-30T21:20:50.686Z,81.18
2023-01-30T21:23:55.870Z,80.66
2023-01-30T21:26:59.170Z,81.39
2023-01-30T21:30:03.691Z,81.16
2023-01-30T21:33:06.478Z,80.97
2023-01-30T21:36:10.310Z,81.52
2023-01-30T21:39:31.827Z,81.42
2023-01-30T21:42:52.039Z,81.52
2023-01-30T21:45:59.455Z,81.25
2023-01-30T21:49:02.155Z,81.47
2023-01-30T21:52:05.472Z,81.15
2023-01-30T21:55:13.973Z,81.41
2023-01-30T21:58:16.707Z,81.00
2023-01-30T22:01:21.104Z,81.16
2023-01-30T22:04:24.049Z,81.21
2023-01-30T22:07:27.404Z,81.08
2023-01-30T22:10:30.832Z,81.07
2023-01-30T22:13:34.326Z,81.22
2023-01-30T22:16:38.675Z,81.12
2023-01-30T22:19:41.369Z,81.11
2023-01-30T22:22:44.074Z,81.35
2023-01-30T22:25:54.907Z,81.23
2023-01-30T22:28:59.041Z,81.21
2023-01-30T22:32:03.466Z,81.61
2023-01-30T22:35:07.059Z,81.60
2023-01-30T22:38:09.760Z,81.62
2023-01-30T22:41:15.765Z,81.65
2023-01-30T22:44:18.457Z,81.57
2023-01-30T22:47:22.563Z,81.58
2023-01-30T22:50:25.279Z,81.41
2023-01-30T22:53:28.026Z,81.43
2023-01-30T22:56:32.058Z,81.17
2023-01-30T22:59:34.795Z,81.03
2023-01-30T23:02:39.355Z,81.07
2023-01-30T23:05:42.160Z,80.98
2023-01-30T23:08:46.927Z,80.72
2023-01-30T23:12:05.530Z,80.96
2023-01-30T23:15:08.947Z,80.83
2023-01-30T23:18:27.363Z,81.34
2023-01-30T23:21:32.286Z,81.37
2023-01-30T23:24:35.408Z,81.46
2023-01-30T23:27:39.029Z,81.64
2023-01-30T23:30:41.784Z,82.02
2023-01-30T23:33:46.287Z,82.00
2023-01-30T23:36:49.141Z,82.47
2023-01-30T23:39:51.859Z,82.27
2023-01-30T23:42:54.511Z,82.57
2023-01-30T23:45:58.065Z,82.57
2023-01-30T23:49:03.936Z,82.83
2023-01-30T23:52:06.627Z,82.67
2023-01-30T23:55:10.190Z,82.97
2023-01-30T23:58:12.893Z,83.04
